Time;durP1;ratioP1;P1;durP2;ratioP2;P2;SDS_P1;SDS_P2;PMS_P1;PMS_P2;Temp;Humidity;BMP_temperature;BMP_pressure;BME280_temperature;BME280_humidity;BME280_pressure;Samples;Min_cycle;Max_cycle;Signal;HPM_P1;HPM_P2
2024/03/05 00:02:29;;;;;;;;;19.00;13.00;;;;;3.45;91.24;100063.31;112575;244;39852;-53
2024/03/05 00:05:09;;;;;;;;;15.75;11.75;;;;;3.41;91.21;100066.34;112368;241;161119;-53
2024/03/05 00:07:47;;;;;;;;;22.50;16.00;;;;;3.37;91.17;100065.88;112480;244;41511;-51
2024/03/05 00:10:27;;;;;;;;;23.00;17.00;;;;;3.36;91.34;100065.05;112530;244;40650;-51
2024/03/05 00:13:06;;;;;;;;;24.00;17.00;;;;;3.39;91.36;100068.49;112426;244;40580;-52
2024/03/05 00:15:48;;;;;;;;;21.75;17.50;;;;;3.37;91.41;100066.22;112535;244;40798;-53
2024/03/05 00:18:29;;;;;;;;;20.00;15.00;;;;;3.35;91.39;100068.41;112289;241;161310;-49
2024/03/05 00:21:08;;;;;;;;;14.33;10.67;;;;;3.36;91.38;100066.12;112555;244;39281;-50
2024/03/05 00:23:52;;;;;;;;;14.00;11.00;;;;;3.33;91.43;100067.52;112324;241;161206;-49
2024/03/05 00:26:32;;;;;;;;;24.00;18.33;;;;;3.33;91.70;100071.90;112524;244;41491;-52
2024/03/05 00:29:13;;;;;;;;;21.75;14.25;;;;;3.23;91.99;100072.45;112232;243;161362;-54
2024/03/05 00:31:52;;;;;;;;;20.00;14.00;;;;;3.24;91.97;100067.88;112456;244;40088;-52
2024/03/05 00:34:32;;;;;;;;;21.00;17.00;;;;;3.24;91.81;100070.15;112548;244;39845;-52
2024/03/05 00:37:08;;;;;;;;;20.50;12.00;;;;;3.28;91.76;100073.34;112414;244;39422;-53
2024/03/05 00:39:48;;;;;;;;;17.33;13.00;;;;;3.28;91.77;100075.62;112517;244;39361;-53
2024/03/05 00:42:30;;;;;;;;;21.00;16.00;;;;;3.28;91.58;100077.48;112302;240;163602;-55
2024/03/05 00:45:06;;;;;;;;;20.00;15.50;;;;;3.18;91.91;100075.54;112501;243;40907;-55
2024/03/05 00:47:47;;;;;;;;;19.00;14.00;;;;;3.21;91.83;100077.07;112376;241;161886;-51
2024/03/05 00:50:22;;;;;;;;;20.00;15.25;;;;;3.19;91.78;100075.48;112490;244;39365;-51
2024/03/05 00:53:04;;;;;;;;;13.00;9.00;;;;;3.17;91.81;100071.42;112371;241;161007;-54
2024/03/05 00:55:42;;;;;;;;;13.00;9.00;;;;;3.11;91.90;100076.65;112459;244;39772;-54
2024/03/05 00:58:22;;;;;;;;;16.25;13.00;;;;;3.09;91.72;100074.21;112473;244;39903;-55
2024/03/05 01:01:03;;;;;;;;;19.00;15.75;;;;;3.06;91.79;100077.34;112405;244;41443;-52
2024/03/05 01:03:41;;;;;;;;;16.50;12.00;;;;;2.95;92.01;100076.22;112513;244;40590;-51
2024/03/05 01:06:21;;;;;;;;;13.00;10.00;;;;;2.89;91.93;100074.31;112268;242;161298;-51
2024/03/05 01:09:11;;;;;;;;;16.75;11.75;;;;;2.81;92.02;100074.64;112411;244;39878;-51
2024/03/05 01:11:52;;;;;;;;;16.00;13.00;;;;;2.75;91.96;100069.24;112272;244;161640;-50
2024/03/05 01:14:35;;;;;;;;;22.00;15.00;;;;;2.73;92.05;100062.77;112472;244;39677;-51
2024/03/05 01:17:18;;;;;;;;;20.00;15.00;;;;;2.75;91.94;100064.09;112416;241;161522;-51
2024/03/05 01:20:02;;;;;;;;;15.75;11.00;;;;;2.73;91.85;100064.17;112508;244;39725;-52
2024/03/05 01:22:36;;;;;;;;;17.33;13.00;;;;;2.67;92.08;100060.84;112460;242;162790;-55
2024/03/05 01:25:11;;;;;;;;;20.00;13.00;;;;;2.62;92.12;100060.13;112462;244;39315;-55
2024/03/05 01:27:54;;;;;;;;;18.50;14.00;;;;;2.59;92.06;100059.66;112524;244;40824;-54
2024/03/05 01:30:41;;;;;;;;;11.50;8.75;;;;;2.53;92.13;100057.73;112275;244;161143;-54
2024/03/05 01:33:22;;;;;;;;;14.50;10.50;;;;;2.48;92.19;100060.23;112503;244;39260;-52
2024/03/05 01:36:01;;;;;;;;;17.00;11.75;;;;;2.46;92.20;100053.48;112295;241;161662;-53
2024/03/05 01:38:39;;;;;;;;;19.00;13.00;;;;;2.45;92.21;100053.19;112367;244;42918;-54
2024/03/05 01:41:22;;;;;;;;;14.67;11.00;;;;;2.43;92.18;100056.75;112355;241;162625;-53
2024/03/05 01:44:05;;;;;;;;;15.00;11.67;;;;;2.43;92.39;100059.61;112431;244;39635;-54
2024/03/05 01:46:42;;;;;;;;;15.00;11.00;;;;;2.41;92.52;100061.20;112333;244;161811;-54
2024/03/05 01:49:20;;;;;;;;;19.00;13.67;;;;;2.45;92.63;100063.14;112381;244;40940;-53
2024/03/05 01:51:59;;;;;;;;;15.50;11.00;;;;;2.48;92.73;100066.11;112469;244;39456;-51
2024/03/05 01:54:40;;;;;;;;;13.25;11.00;;;;;2.47;92.61;100063.13;112291;241;161939;-51
2024/03/05 01:57:19;;;;;;;;;17.50;14.00;;;;;2.51;92.67;100066.74;112461;244;39655;-51
2024/03/05 01:59:53;;;;;;;;;14.00;10.00;;;;;2.52;92.79;100070.08;112341;241;163020;-51
2024/03/05 02:02:30;;;;;;;;;18.00;14.00;;;;;2.55;92.66;100070.73;112436;244;39177;-50
2024/03/05 02:05:12;;;;;;;;;16.00;13.00;;;;;2.56;92.72;100071.03;112253;242;161259;-50
2024/03/05 02:07:50;;;;;;;;;18.00;12.25;;;;;2.51;92.70;100069.16;112441;244;39312;-52
2024/03/05 02:10:39;;;;;;;;;15.25;11.00;;;;;2.48;92.75;100063.58;112440;244;40539;-52
2024/03/05 02:13:20;;;;;;;;;13.25;9.75;;;;;2.42;92.87;100062.52;112384;244;39176;-52
2024/03/05 02:16:00;;;;;;;;;15.00;11.00;;;;;2.42;93.02;100063.42;112504;244;39921;-54
2024/03/05 02:18:39;;;;;;;;;15.00;11.00;;;;;2.39;93.03;100062.45;112307;241;161301;-54
2024/03/05 02:21:23;;;;;;;;;18.00;12.00;;;;;2.31;93.21;100064.33;112541;244;40623;-51
2024/03/05 02:24:01;;;;;;;;;17.75;13.00;;;;;2.36;93.25;100062.73;112349;241;161578;-50
2024/03/05 02:26:45;;;;;;;;;17.00;11.00;;;;;2.39;93.37;100063.38;112503;244;40718;-51
2024/03/05 02:29:30;;;;;;;;;18.75;12.25;;;;;2.45;93.41;100063.36;112353;241;162606;-51
2024/03/05 02:32:05;;;;;;;;;17.75;11.75;;;;;2.48;93.41;100059.84;112499;244;40617;-55
2024/03/05 02:34:45;;;;;;;;;17.00;13.00;;;;;2.51;93.58;100062.04;112353;241;161600;-55
2024/03/05 02:37:21;;;;;;;;;24.00;16.00;;;;;2.49;93.49;100062.09;112402;244;40380;-51
2024/03/05 02:40:03;;;;;;;;;15.00;12.00;;;;;2.50;93.56;100062.36;112443;244;40659;-51
2024/03/05 02:42:42;;;;;;;;;21.00;15.00;;;;;2.57;93.39;100062.16;112286;241;161539;-51
2024/03/05 02:45:25;;;;;;;;;16.75;13.00;;;;;2.59;93.52;100065.71;112460;244;41217;-52
2024/03/05 02:48:08;;;;;;;;;18.00;13.00;;;;;2.60;93.50;100066.66;112348;242;161233;-51
2024/03/05 02:50:49;;;;;;;;;16.00;11.67;;;;;2.62;93.55;100070.38;112485;244;39988;-51
2024/03/05 02:53:34;;;;;;;;;17.00;12.00;;;;;2.58;93.59;100069.32;112226;241;160631;-51
2024/03/05 02:56:12;;;;;;;;;12.00;9.00;;;;;2.56;93.79;100070.41;112369;244;41023;-53
2024/03/05 02:58:51;;;;;;;;;14.75;11.00;;;;;2.60;93.68;100073.30;112280;242;160965;-52
2024/03/05 03:01:31;;;;;;;;;12.00;10.00;;;;;2.63;93.64;100073.14;112361;244;40235;-55
2024/03/05 03:04:09;;;;;;;;;19.50;13.50;;;;;2.58;93.69;100075.77;112390;244;39430;-56
2024/03/05 03:06:52;;;;;;;;;17.00;12.50;;;;;2.55;93.90;100075.36;112234;243;161118;-52
2024/03/05 03:09:30;;;;;;;;;15.50;11.00;;;;;2.57;93.91;100077.29;112390;244;39884;-52
2024/03/05 03:12:09;;;;;;;;;18.33;13.33;;;;;2.60;94.06;100074.00;112262;242;162608;-51
2024/03/05 03:14:52;;;;;;;;;14.00;10.75;;;;;2.64;94.11;100071.83;112413;244;40874;-51
2024/03/05 03:17:30;;;;;;;;;15.00;11.00;;;;;2.64;94.17;100074.58;112273;242;161567;-55
2024/03/05 03:20:09;;;;;;;;;15.33;10.33;;;;;2.66;94.19;100072.64;112362;244;40414;-55
2024/03/05 03:22:47;;;;;;;;;17.00;12.00;;;;;2.69;94.28;100071.09;112248;242;162297;-50
2024/03/05 03:25:30;;;;;;;;;13.50;10.50;;;;;2.75;94.11;100071.26;112370;244;39086;-50
2024/03/05 03:28:08;;;;;;;;;17.25;13.00;;;;;2.77;94.22;100069.65;112425;244;41205;-54
2024/03/05 03:30:48;;;;;;;;;20.33;16.33;;;;;2.78;94.28;100066.84;112247;242;161325;-54
2024/03/05 03:33:28;;;;;;;;;16.00;12.00;;;;;2.78;94.50;100070.25;112435;244;39821;-52
2024/03/05 03:36:07;;;;;;;;;14.25;11.00;;;;;2.83;94.56;100069.92;112249;242;161382;-49
2024/03/05 03:38:45;;;;;;;;;19.33;15.00;;;;;2.86;94.61;100068.77;112445;245;40138;-49
2024/03/05 03:41:30;;;;;;;;;20.25;14.00;;;;;2.88;94.63;100065.89;112322;242;161481;-49
2024/03/05 03:44:09;;;;;;;;;13.25;10.00;;;;;2.91;94.56;100070.89;112411;244;39968;-49
2024/03/05 03:46:52;;;;;;;;;18.75;13.00;;;;;2.94;94.63;100071.17;112363;242;161498;-53
2024/03/05 03:49:32;;;;;;;;;19.00;14.00;;;;;2.95;94.79;100066.27;112404;244;39641;-52
2024/03/05 03:52:13;;;;;;;;;14.00;9.50;;;;;2.93;94.82;100062.52;112445;244;40448;-53
2024/03/05 03:54:52;;;;;;;;;14.00;12.00;;;;;2.98;94.61;100063.09;112238;242;161296;-53
2024/03/05 03:57:39;;;;;;;;;15.00;10.00;;;;;3.04;94.67;100060.03;112375;244;39729;-50
2024/03/05 04:00:18;;;;;;;;;12.00;9.00;;;;;3.04;94.76;100056.84;112221;242;161427;-50
2024/03/05 04:03:02;;;;;;;;;13.00;9.00;;;;;3.06;94.82;100061.33;112394;245;39645;-53
2024/03/05 04:05:42;;;;;;;;;11.00;10.00;;;;;3.06;94.97;100065.06;112249;242;161109;-53
2024/03/05 04:08:20;;;;;;;;;14.75;11.25;;;;;3.05;95.03;100062.81;112409;244;39335;-49
2024/03/05 04:11:05;;;;;;;;;15.00;11.00;;;;;3.03;95.11;100061.73;112289;242;161391;-51
2024/03/05 04:13:47;;;;;;;;;13.00;10.00;;;;;3.04;95.18;100060.06;112395;244;39840;-51
2024/03/05 04:16:26;;;;;;;;;15.67;12.00;;;;;3.08;95.15;100063.26;112436;245;41030;-49
2024/03/05 04:19:06;;;;;;;;;13.50;10.00;;;;;3.08;95.27;100060.89;112250;242;161824;-51
2024/03/05 04:21:52;;;;;;;;;12.00;9.00;;;;;3.15;95.16;100063.77;112410;244;39875;-54
2024/03/05 04:24:30;;;;;;;;;14.00;11.33;;;;;3.19;95.15;100065.84;112253;242;161224;-54
2024/03/05 04:27:11;;;;;;;;;18.00;12.25;;;;;3.21;95.23;100065.34;112467;244;40609;-52
2024/03/05 04:29:53;;;;;;;;;14.00;9.00;;;;;3.22;95.25;100066.52;112359;242;160768;-50
2024/03/05 04:32:28;;;;;;;;;13.67;10.00;;;;;3.23;95.36;100065.65;112462;244;39631;-49
2024/03/05 04:35:11;;;;;;;;;16.33;12.33;;;;;3.25;95.38;100066.70;112304;242;161597;-49
2024/03/05 04:37:50;;;;;;;;;12.50;10.00;;;;;3.21;95.51;100066.25;112406;244;39612;-50
2024/03/05 04:40:29;;;;;;;;;19.50;14.00;;;;;3.22;95.58;100067.90;112391;244;39775;-50
2024/03/05 04:43:06;;;;;;;;;14.00;10.00;;;;;3.28;95.49;100066.58;112378;243;39807;-52
2024/03/05 04:45:43;;;;;;;;;18.00;14.50;;;;;3.31;95.55;100062.52;112412;244;39833;-53
2024/03/05 04:48:20;;;;;;;;;13.00;10.00;;;;;3.33;95.61;100066.99;112262;242;161428;-49
2024/03/05 04:51:01;;;;;;;;;16.00;12.75;;;;;3.31;95.88;100066.45;112405;244;40429;-50
2024/03/05 04:53:38;;;;;;;;;15.00;11.00;;;;;3.32;95.85;100064.39;112267;242;161295;-50
2024/03/05 04:56:17;;;;;;;;;12.33;10.67;;;;;3.33;95.92;100068.02;112389;244;42863;-50
2024/03/05 04:58:54;;;;;;;;;20.50;13.25;;;;;3.33;96.14;100068.91;112273;242;161331;-49
2024/03/05 05:01:31;;;;;;;;;12.33;10.33;;;;;3.36;95.92;100066.89;112425;244;40604;-53
2024/03/05 05:04:07;;;;;;;;;15.25;12.00;;;;;3.41;95.87;100077.05;112447;244;40050;-53
2024/03/05 05:06:51;;;;;;;;;16.00;12.33;;;;;3.43;95.94;100075.96;112300;242;161740;-53
2024/03/05 05:09:30;;;;;;;;;18.00;13.00;;;;;3.44;96.07;100079.55;112438;244;40910;-53
2024/03/05 05:12:08;;;;;;;;;19.25;13.00;;;;;3.47;95.98;100083.72;112349;242;161334;-52
2024/03/05 05:14:44;;;;;;;;;17.00;14.00;;;;;3.50;95.87;100085.38;112427;244;41199;-49
2024/03/05 05:17:24;;;;;;;;;16.25;11.50;;;;;3.54;96.10;100089.09;112303;242;161958;-49
2024/03/05 05:20:08;;;;;;;;;15.00;10.25;;;;;3.56;96.18;100090.63;112413;245;39822;-49
2024/03/05 05:22:51;;;;;;;;;17.50;14.25;;;;;3.54;96.28;100089.38;112427;244;39344;-49
2024/03/05 05:25:30;;;;;;;;;23.00;16.00;;;;;3.52;96.35;100090.45;112377;245;39779;-49
2024/03/05 05:28:07;;;;;;;;;19.00;15.00;;;;;3.58;96.23;100092.71;112389;244;40984;-50
2024/03/05 05:30:45;;;;;;;;;25.00;16.00;;;;;3.60;96.45;100094.50;112289;242;161469;-49
2024/03/05 05:33:20;;;;;;;;;18.00;14.50;;;;;3.55;96.65;100091.45;112392;244;40765;-48
2024/03/05 05:36:00;;;;;;;;;28.33;20.67;;;;;3.60;96.47;100089.89;112282;242;161479;-52
2024/03/05 05:38:42;;;;;;;;;25.00;20.00;;;;;3.60;96.64;100084.33;112411;244;39447;-52
2024/03/05 05:41:21;;;;;;;;;20.00;15.25;;;;;3.58;96.76;100087.43;112284;242;161621;-52
2024/03/05 05:43:56;;;;;;;;;23.00;17.00;;;;;3.61;96.75;100088.16;112364;244;40108;-52
2024/03/05 05:46:39;;;;;;;;;22.00;16.00;;;;;3.64;96.92;100089.46;112450;244;39809;-49
2024/03/05 05:49:20;;;;;;;;;20.00;14.00;;;;;3.66;96.60;100092.29;112436;243;40217;-49
2024/03/05 05:51:57;;;;;;;;;23.25;18.25;;;;;3.70;96.50;100087.41;112441;244;40261;-49
2024/03/05 05:54:42;;;;;;;;;25.00;16.00;;;;;3.72;96.71;100088.67;112258;241;161923;-49
2024/03/05 05:57:18;;;;;;;;;20.00;15.75;;;;;3.79;96.62;100087.05;112464;244;39314;-49
2024/03/05 05:59:57;;;;;;;;;22.33;16.00;;;;;3.76;96.68;100087.57;112326;242;161993;-49
2024/03/05 06:02:38;;;;;;;;;22.00;15.00;;;;;3.77;96.80;100087.41;112465;244;40880;-49
2024/03/05 06:05:19;;;;;;;;;20.00;15.00;;;;;3.82;96.72;100091.54;112288;242;161646;-49
2024/03/05 06:08:04;;;;;;;;;16.00;13.00;;;;;3.89;96.61;100089.61;112394;244;39789;-49
2024/03/05 06:10:41;;;;;;;;;22.00;15.67;;;;;3.90;96.74;100095.04;112421;244;40625;-49
2024/03/05 06:13:29;;;;;;;;;15.25;12.00;;;;;3.92;96.80;100099.10;112432;243;39830;-49
2024/03/05 06:16:08;;;;;;;;;18.50;14.75;;;;;3.93;96.63;100100.09;112428;244;40848;-52
2024/03/05 06:18:47;;;;;;;;;17.67;12.00;;;;;3.93;96.61;100106.99;112213;241;161854;-53
2024/03/05 06:21:27;;;;;;;;;20.00;15.00;;;;;3.95;96.55;100110.02;112413;244;41170;-51
2024/03/05 06:24:06;;;;;;;;;17.00;13.00;;;;;3.95;96.69;100111.98;112223;241;161624;-52
2024/03/05 06:26:42;;;;;;;;;16.67;13.00;;;;;3.99;96.69;100112.42;112389;244;39401;-49
2024/03/05 06:29:16;;;;;;;;;15.75;12.50;;;;;4.02;96.69;100112.69;112267;242;161776;-49
2024/03/05 06:31:53;;;;;;;;;11.00;8.75;;;;;4.02;96.70;100115.50;112370;244;39802;-52
2024/03/05 06:34:34;;;;;;;;;13.50;10.00;;;;;4.04;96.58;100118.85;112375;244;39907;-51
2024/03/05 06:37:17;;;;;;;;;22.00;16.00;;;;;4.03;96.64;100118.44;112254;242;161596;-49
2024/03/05 06:39:58;;;;;;;;;23.00;15.25;;;;;4.06;96.61;100121.41;111914;245;561241;-49
2024/03/05 06:42:38;;;;;;;;;13.50;9.75;;;;;4.08;96.76;100125.79;112304;242;162126;-52
2024/03/05 06:45:24;;;;;;;;;19.50;15.50;;;;;4.10;96.62;100131.12;112406;245;39790;-52
2024/03/05 06:48:12;;;;;;;;;18.00;15.00;;;;;4.08;96.69;100130.95;112335;242;161596;-50
2024/03/05 06:50:57;;;;;;;;;21.00;13.75;;;;;4.12;96.67;100129.54;112410;244;39633;-49
2024/03/05 06:56:52;;;;;;;;;18.00;13.50;;;;;4.23;96.57;100128.39;112235;244;39812;-52
2024/03/05 06:59:32;;;;;;;;;16.00;13.00;;;;;4.27;96.37;100128.84;112278;242;162252;-52
2024/03/05 07:02:08;;;;;;;;;15.00;12.00;;;;;4.31;96.32;100130.05;112447;245;39942;-49
2024/03/05 07:04:45;;;;;;;;;19.00;14.00;;;;;4.32;96.37;100133.30;112367;244;41166;-50
2024/03/05 07:07:30;;;;;;;;;15.00;11.67;;;;;4.35;96.38;100133.31;112397;243;39785;-53
2024/03/05 07:10:13;;;;;;;;;18.00;14.00;;;;;4.39;96.36;100136.77;112383;244;40299;-53
2024/03/05 07:12:57;;;;;;;;;15.50;11.25;;;;;4.37;96.51;100137.27;112258;242;160689;-49
2024/03/05 07:15:34;;;;;;;;;14.25;10.50;;;;;4.33;96.67;100136.45;112418;244;40096;-49
2024/03/05 07:18:10;;;;;;;;;18.75;15.00;;;;;4.26;96.67;100146.27;112279;243;161117;-53
2024/03/05 07:20:58;;;;;;;;;13.00;10.50;;;;;4.27;96.65;100154.05;112386;244;40119;-54
2024/03/05 07:23:36;;;;;;;;;19.33;14.00;;;;;4.26;96.75;100159.65;112281;242;162186;-50
2024/03/05 07:26:19;;;;;;;;;18.00;14.00;;;;;4.24;96.73;100164.31;112402;244;41271;-52
2024/03/05 07:28:59;;;;;;;;;19.00;14.00;;;;;4.24;96.78;100165.89;112426;244;40196;-53
2024/03/05 07:31:36;;;;;;;;;20.50;15.00;;;;;4.27;96.88;100168.63;112440;245;39888;-50
2024/03/05 07:34:16;;;;;;;;;27.00;18.00;;;;;4.33;97.06;100165.46;112476;245;39051;-50
2024/03/05 07:36:57;;;;;;;;;23.00;18.00;;;;;4.37;96.85;100166.20;112254;242;161096;-50
2024/03/05 07:39:37;;;;;;;;;19.00;15.00;;;;;4.39;96.87;100157.59;112421;244;40606;-50
2024/03/05 07:42:27;;;;;;;;;24.75;16.00;;;;;4.39;97.01;100157.38;112274;242;161200;-50
2024/03/05 07:45:06;;;;;;;;;20.67;16.00;;;;;4.41;97.00;100159.10;112446;244;41192;-50
2024/03/05 07:47:47;;;;;;;;;25.67;17.00;;;;;4.49;97.03;100162.83;112270;242;162112;-53
2024/03/05 07:50:31;;;;;;;;;22.00;16.50;;;;;4.54;96.87;100156.89;112411;244;39044;-53
2024/03/05 07:53:09;;;;;;;;;30.50;22.00;;;;;4.61;97.10;100152.26;112360;242;161528;-50
2024/03/05 07:55:52;;;;;;;;;27.00;22.00;;;;;4.69;97.03;100147.80;112370;244;41473;-50
2024/03/05 07:58:30;;;;;;;;;28.50;19.00;;;;;4.76;96.95;100154.20;112417;244;40156;-52
2024/03/05 08:01:19;;;;;;;;;19.33;16.00;;;;;4.79;96.84;100161.41;112262;242;162751;-50
2024/03/05 08:04:03;;;;;;;;;44.00;28.00;;;;;4.92;96.74;100166.47;112375;244;40493;-50
2024/03/05 08:06:43;;;;;;;;;38.50;26.50;;;;;4.93;96.64;100171.62;112237;242;161307;-54
2024/03/05 08:09:22;;;;;;;;;23.00;18.00;;;;;4.86;96.66;100173.59;112447;244;40986;-54
2024/03/05 08:11:56;;;;;;;;;24.00;17.50;;;;;4.88;96.63;100171.23;112265;242;160793;-51
2024/03/05 08:14:35;;;;;;;;;31.67;22.33;;;;;4.85;96.54;100165.45;112401;244;39878;-50
2024/03/05 08:17:11;;;;;;;;;22.00;16.33;;;;;4.80;96.59;100159.01;112236;243;160734;-54
2024/03/05 08:19:54;;;;;;;;;26.00;18.00;;;;;4.79;96.60;100154.15;112375;244;39824;-54
2024/03/05 08:22:32;;;;;;;;;23.75;18.00;;;;;4.75;96.90;100150.38;112467;244;39975;-53
2024/03/05 08:25:10;;;;;;;;;30.75;22.25;;;;;4.79;97.00;100152.71;112263;242;161550;-52
2024/03/05 08:27:54;;;;;;;;;35.50;26.25;;;;;4.87;96.92;100161.65;112467;244;39050;-52
2024/03/05 08:30:32;;;;;;;;;25.00;18.00;;;;;4.85;96.81;100172.61;112267;242;161610;-52
2024/03/05 08:33:16;;;;;;;;;24.25;18.50;;;;;4.90;96.82;100184.75;112428;244;39391;-53
2024/03/05 08:35:58;;;;;;;;;21.00;15.00;;;;;5.02;96.71;100194.73;112267;242;161869;-52
2024/03/05 08:38:40;;;;;;;;;27.00;20.00;;;;;5.09;96.48;100196.77;112371;244;39736;-50
2024/03/05 08:41:25;;;;;;;;;18.00;14.00;;;;;5.18;96.32;100202.14;112279;242;161685;-53
2024/03/05 08:44:06;;;;;;;;;21.00;15.00;;;;;5.22;96.13;100205.80;112340;244;40023;-53
2024/03/05 08:46:45;;;;;;;;;23.00;17.00;;;;;5.17;96.21;100205.55;112412;244;41448;-50
2024/03/05 08:49:25;;;;;;;;;22.00;16.00;;;;;5.23;96.18;100198.71;112290;242;161461;-50
2024/03/05 08:52:03;;;;;;;;;29.00;21.33;;;;;5.18;96.29;100203.52;112391;244;40249;-51
2024/03/05 08:54:46;;;;;;;;;29.00;21.00;;;;;5.26;96.14;100200.80;112248;242;161395;-50
2024/03/05 08:57:28;;;;;;;;;26.00;17.00;;;;;5.32;96.05;100200.13;112418;244;39343;-52
2024/03/05 09:00:14;;;;;;;;;26.00;21.00;;;;;5.33;95.88;100206.37;112276;243;161373;-52
2024/03/05 09:02:53;;;;;;;;;20.75;16.00;;;;;5.34;95.65;100211.15;112426;244;39358;-50
2024/03/05 09:05:32;;;;;;;;;26.00;20.00;;;;;5.31;95.86;100206.82;112340;242;161437;-51
2024/03/05 09:08:09;;;;;;;;;32.00;25.00;;;;;5.25;95.89;100211.17;112443;244;40262;-53
2024/03/05 09:10:49;;;;;;;;;17.75;14.25;;;;;5.21;95.88;100208.95;112456;244;40239;-54
2024/03/05 09:13:36;;;;;;;;;21.00;16.00;;;;;5.24;95.82;100207.90;112275;241;200212;-51
2024/03/05 09:16:12;;;;;;;;;20.00;15.00;;;;;5.31;95.85;100211.91;112413;245;40119;-53
2024/03/05 09:18:50;;;;;;;;;14.75;13.00;;;;;5.43;95.65;100214.11;112273;242;161832;-53
2024/03/05 09:21:37;;;;;;;;;19.75;16.00;;;;;5.51;95.55;100213.88;112421;244;40030;-50
2024/03/05 09:24:15;;;;;;;;;17.00;13.25;;;;;5.45;95.56;100212.98;112302;242;161642;-50
2024/03/05 09:27:01;;;;;;;;;19.75;15.00;;;;;5.52;95.45;100212.50;112386;244;40418;-51
2024/03/05 09:29:43;;;;;;;;;27.00;21.75;;;;;5.52;95.49;100217.83;112271;243;162046;-51
2024/03/05 09:32:25;;;;;;;;;21.67;17.00;;;;;5.61;95.40;100221.48;112404;244;39967;-50
2024/03/05 09:35:02;;;;;;;;;20.00;15.00;;;;;5.72;95.12;100220.31;112413;244;39816;-50
2024/03/05 09:37:45;;;;;;;;;27.00;20.25;;;;;5.70;95.15;100221.38;112371;245;39985;-50
2024/03/05 09:40:24;;;;;;;;;19.25;14.25;;;;;5.73;95.19;100228.06;112390;244;40868;-51
2024/03/05 09:43:05;;;;;;;;;19.00;15.00;;;;;5.67;95.19;100233.22;112271;241;161604;-50
2024/03/05 09:45:42;;;;;;;;;22.00;15.00;;;;;5.71;95.01;100235.73;112415;244;40214;-51
2024/03/05 09:48:25;;;;;;;;;28.00;19.00;;;;;5.77;94.92;100239.41;112300;241;162103;-51
2024/03/05 09:51:08;;;;;;;;;23.25;18.25;;;;;5.79;94.89;100241.91;112427;244;39971;-51
2024/03/05 09:53:45;;;;;;;;;19.75;14.75;;;;;5.82;94.95;100244.55;112311;242;161707;-51
2024/03/05 09:56:26;;;;;;;;;17.00;13.33;;;;;5.90;94.70;100247.02;112405;244;39188;-51
2024/03/05 09:59:06;;;;;;;;;24.00;19.00;;;;;5.93;94.52;100250.41;112400;244;40066;-51
2024/03/05 10:01:47;;;;;;;;;20.50;15.25;;;;;6.00;94.39;100253.41;112461;244;41053;-50
2024/03/05 10:04:31;;;;;;;;;24.75;18.75;;;;;6.05;94.24;100257.34;112416;244;38868;-51
2024/03/05 10:07:07;;;;;;;;;26.25;21.00;;;;;6.10;94.23;100260.27;112270;242;161236;-52
2024/03/05 10:09:47;;;;;;;;;18.00;14.25;;;;;6.09;93.95;100262.34;112457;244;39116;-52
2024/03/05 10:12:33;;;;;;;;;21.25;16.25;;;;;6.05;93.84;100261.83;112266;241;161399;-50
2024/03/05 10:15:28;;;;;;;;;22.00;14.00;;;;;6.06;93.79;100268.02;112398;244;40129;-50
2024/03/05 10:18:07;;;;;;;;;28.25;19.75;;;;;6.05;93.72;100270.64;112317;242;161583;-51
2024/03/05 10:20:42;;;;;;;;;32.00;24.00;;;;;6.00;93.99;100275.79;112427;244;40973;-50
2024/03/05 10:23:23;;;;;;;;;23.25;17.00;;;;;6.03;93.87;100274.73;112249;242;161784;-51
2024/03/05 10:26:18;;;;;;;;;32.50;21.00;;;;;5.96;93.78;100277.58;112374;244;39755;-53
2024/03/05 10:29:07;;;;;;;;;29.00;20.00;;;;;6.03;93.81;100276.57;112350;244;40386;-54
2024/03/05 10:31:46;;;;;;;;;23.75;18.25;;;;;6.06;93.86;100281.58;112392;245;39481;-50
2024/03/05 10:34:27;;;;;;;;;36.00;26.67;;;;;6.04;93.81;100284.45;112436;244;41374;-51
2024/03/05 10:37:11;;;;;;;;;33.00;23.00;;;;;6.03;93.89;100279.95;112353;242;160846;-53
2024/03/05 10:39:49;;;;;;;;;32.25;21.75;;;;;5.92;93.68;100282.02;112365;244;39370;-53
2024/03/05 10:42:38;;;;;;;;;27.00;18.67;;;;;5.81;93.83;100279.78;112311;242;161611;-53
2024/03/05 10:45:14;;;;;;;;;22.67;18.00;;;;;5.82;93.80;100278.58;112378;245;40327;-53
2024/03/05 10:47:51;;;;;;;;;26.00;18.00;;;;;5.82;93.82;100277.31;112360;241;162989;-51
2024/03/05 10:50:36;;;;;;;;;23.00;17.50;;;;;5.86;93.81;100279.05;112399;244;40627;-50
2024/03/05 10:53:11;;;;;;;;;28.00;19.00;;;;;5.89;93.90;100279.67;112326;241;161731;-54
2024/03/05 10:55:49;;;;;;;;;28.25;21.00;;;;;5.92;93.73;100282.37;112397;244;39415;-53
2024/03/05 10:58:57;;;;;;;;;24.67;17.67;;;;;5.92;93.85;100283.38;112421;244;40165;-52
2024/03/05 11:01:33;;;;;;;;;25.75;19.25;;;;;5.89;93.93;100286.54;112388;242;160785;-53
2024/03/05 11:04:14;;;;;;;;;31.33;23.00;;;;;5.95;93.79;100285.98;112429;244;39938;-53
2024/03/05 11:06:55;;;;;;;;;30.50;24.00;;;;;5.88;93.92;100292.11;112267;242;161004;-50
2024/03/05 11:09:37;;;;;;;;;19.50;16.25;;;;;5.91;93.87;100286.18;112407;244;40198;-50
2024/03/05 11:12:20;;;;;;;;;32.00;24.00;;;;;5.90;93.84;100286.34;112271;242;161418;-50
2024/03/05 11:14:54;;;;;;;;;24.75;18.75;;;;;5.81;93.82;100286.68;112384;245;39515;-50
2024/03/05 11:17:36;;;;;;;;;23.00;17.00;;;;;5.80;93.87;100284.80;112272;242;161739;-52
2024/03/05 11:20:33;;;;;;;;;34.75;27.00;;;;;5.84;93.94;100288.50;112350;244;41138;-52
2024/03/05 11:23:21;;;;;;;;;20.25;17.00;;;;;5.86;94.11;100290.99;112401;244;40232;-53
2024/03/05 11:26:04;;;;;;;;;22.50;16.50;;;;;5.91;93.98;100297.11;112382;245;39182;-51
2024/03/05 11:28:41;;;;;;;;;27.50;19.50;;;;;5.95;93.95;100294.01;112387;245;39209;-50
2024/03/05 11:31:18;;;;;;;;;27.00;20.00;;;;;5.99;93.79;100298.27;112077;244;161903;-52
2024/03/05 11:34:10;;;;;;;;;28.00;21.00;;;;;6.02;93.66;100300.27;112475;245;39408;-52
2024/03/05 11:37:12;;;;;;;;;27.00;19.00;;;;;6.06;93.59;100298.94;112274;243;161395;-52
2024/03/05 11:39:52;;;;;;;;;22.33;15.67;;;;;6.08;93.58;100306.17;112435;245;40746;-52
2024/03/05 11:42:46;;;;;;;;;23.00;17.50;;;;;6.06;93.57;100303.76;112282;242;160917;-51
2024/03/05 11:45:48;;;;;;;;;23.00;19.00;;;;;5.97;93.73;100305.45;112389;244;38582;-52
2024/03/05 11:48:37;;;;;;;;;24.00;18.00;;;;;5.95;93.76;100306.14;112276;242;161761;-51
2024/03/05 11:51:19;;;;;;;;;30.75;22.75;;;;;5.96;93.73;100303.75;112427;245;39674;-51
2024/03/05 11:54:03;;;;;;;;;24.00;17.00;;;;;5.94;93.82;100303.02;112287;235;186342;-50
2024/03/05 11:56:47;;;;;;;;;26.75;20.50;;;;;5.95;93.78;100307.98;112376;244;39876;-53
2024/03/05 11:59:36;;;;;;;;;25.50;20.00;;;;;5.98;93.79;100309.23;112213;242;162181;-52
2024/03/05 12:02:17;;;;;;;;;26.67;21.00;;;;;6.05;93.74;100310.44;112404;244;39932;-53
2024/03/05 12:05:08;;;;;;;;;23.75;18.50;;;;;6.03;94.02;100308.59;112354;245;39368;-53
2024/03/05 12:07:59;;;;;;;;;37.67;28.00;;;;;6.07;94.05;100310.48;112427;244;39461;-51
2024/03/05 12:10:39;;;;;;;;;23.33;18.00;;;;;6.03;94.03;100311.88;112397;244;39719;-50
2024/03/05 12:13:27;;;;;;;;;28.50;22.00;;;;;6.06;94.09;100313.39;112232;242;161648;-54
2024/03/05 12:16:14;;;;;;;;;26.00;20.00;;;;;6.14;94.09;100318.48;112418;244;41072;-53
2024/03/05 12:18:52;;;;;;;;;34.00;26.00;;;;;6.17;94.07;100326.66;112261;242;162032;-54
2024/03/05 12:21:36;;;;;;;;;24.25;18.25;;;;;6.17;94.02;100330.58;112423;244;39980;-54